Terminal Aerodrome Forecast
Issued by NWS Sterling, VA

Current Version | Previous Version | Graphics & Text | Print | Product List | Glossary On
Versions: 1 2 3 4 5 6 7 8 9 10 11 12 13 14 15 16 17 18 19 20 21 22 23
000
FTUS41 KLWX 211742 CCA
TAFMRB
TAF COR
KMRB 211742Z 2118/2218 VRB05KT 4SM BR SCT008 OVC020
     FM220300 VRB03KT P6SM BKN035
     FM220900 31008KT P6SM SCT120
     FM221400 29013G22KT P6SM FEW060=

USA.gov is the U.S. government's official web portal to all federal, state and local government web resources and services.